Time;durP1;ratioP1;P1;durP2;ratioP2;P2;SDS_P1;SDS_P2;PMS_P1;PMS_P2;Temp;Humidity;BMP_temperature;BMP_pressure;BME280_temperature;BME280_humidity;BME280_pressure;Samples;Min_cycle;Max_cycle;Signal;HPM_P1;HPM_P2
2022/08/22 00:01:13;;;;;;;3.60;2.43;;;19.40;99.90;;;;;;5011141;28;20461;-72
2022/08/22 00:03:54;;;;;;;4.93;2.63;;;19.40;99.90;;;;;;5017454;28;20497;-71
2022/08/22 00:06:31;;;;;;;5.30;4.90;;;19.30;99.90;;;;;;5010281;28;21214;-71
2022/08/22 00:09:19;;;;;;;3.90;3.00;;;19.20;99.90;;;;;;5002437;28;20475;-71
2022/08/22 00:11:52;;;;;;;3.53;2.70;;;19.10;99.90;;;;;;5013128;28;20855;-71
2022/08/22 00:14:24;;;;;;;3.20;2.60;;;19.10;99.90;;;;;;5012491;28;20478;-71
2022/08/22 00:17:00;;;;;;;11.03;2.87;;;19.10;99.90;;;;;;5005821;28;20462;-71
2022/08/22 00:19:40;;;;;;;5.83;3.40;;;19.00;99.90;;;;;;5007338;28;20454;-71
2022/08/22 00:22:17;;;;;;;6.40;3.77;;;18.90;99.90;;;;;;5010746;28;20431;-71
2022/08/22 00:24:51;;;;;;;6.17;3.13;;;18.80;99.90;;;;;;5015186;28;20472;-71
2022/08/22 00:27:22;;;;;;;2.87;2.60;;;18.70;99.90;;;;;;5012843;28;20468;-71
2022/08/22 00:29:56;;;;;;;5.43;2.83;;;18.50;99.90;;;;;;5017293;28;20449;-72
2022/08/22 00:32:31;;;;;;;3.87;2.40;;;18.50;99.90;;;;;;5007767;28;20535;-72
2022/08/22 00:35:05;;;;;;;3.53;3.07;;;18.70;99.90;;;;;;5007278;28;20483;-71
2022/08/22 00:37:37;;;;;;;5.80;3.57;;;18.80;99.90;;;;;;5004523;28;20467;-71
2022/08/22 00:40:25;;;;;;;6.37;3.00;;;18.90;99.90;;;;;;5015269;28;20980;-72
2022/08/22 00:43:28;;;;;;;4.37;3.20;;;18.80;99.90;;;;;;5010691;28;20544;-71
2022/08/22 00:46:10;;;;;;;2.67;2.47;;;18.60;99.90;;;;;;5011140;28;20439;-71
2022/08/22 00:49:11;;;;;;;4.37;2.97;;;18.50;99.90;;;;;;5015131;28;20472;-71
2022/08/22 00:52:04;;;;;;;6.77;3.20;;;18.50;99.90;;;;;;5002230;28;20470;-71
2022/08/22 00:54:49;;;;;;;6.43;3.03;;;18.40;99.90;;;;;;5010724;28;20484;-71
2022/08/22 00:57:43;;;;;;;9.03;3.30;;;18.50;99.90;;;;;;5006622;28;20462;-71
2022/08/22 01:00:16;;;;;;;3.97;2.60;;;18.60;99.90;;;;;;5008392;28;20464;-71
2022/08/22 01:03:01;;;;;;;3.57;2.70;;;18.60;99.90;;;;;;5011975;28;20453;-71
2022/08/22 01:05:43;;;;;;;3.00;2.50;;;18.50;99.90;;;;;;5015448;28;20506;-71
2022/08/22 01:08:24;;;;;;;6.90;3.37;;;18.30;99.90;;;;;;5011779;28;20488;-71
2022/08/22 01:11:07;;;;;;;4.40;3.10;;;18.20;99.90;;;;;;5009627;28;20907;-71
2022/08/22 01:13:46;;;;;;;3.07;2.77;;;18.30;99.90;;;;;;5007650;28;21225;-71
2022/08/22 01:16:26;;;;;;;4.90;3.43;;;18.30;99.90;;;;;;5014615;28;20972;-73
2022/08/22 01:19:19;;;;;;;3.80;2.70;;;18.30;99.90;;;;;;5016627;28;21003;-71
2022/08/22 01:22:09;;;;;;;4.73;2.70;;;18.10;99.90;;;;;;5011160;28;20469;-71
2022/08/22 01:25:27;;;;;;;5.50;3.53;;;18.10;99.90;;;;;;5009085;28;20473;-71
2022/08/22 01:28:30;;;;;;;3.80;2.97;;;18.10;99.90;;;;;;5005089;28;20539;-71
2022/08/22 01:31:36;;;;;;;6.33;3.60;;;18.00;99.90;;;;;;5001810;28;21605;-71
2022/08/22 01:34:35;;;;;;;5.70;3.80;;;17.90;99.90;;;;;;5004854;28;20619;-71
2022/08/22 01:37:38;;;;;;;4.17;2.90;;;17.90;99.90;;;;;;5008711;28;20435;-71
2022/08/22 01:40:42;;;;;;;5.60;3.10;;;18.00;99.90;;;;;;5015442;28;20459;-71
2022/08/22 01:43:15;;;;;;;4.10;3.37;;;18.00;99.90;;;;;;5008547;28;20465;-71
2022/08/22 01:46:08;;;;;;;3.63;2.97;;;18.10;99.90;;;;;;5012059;28;20468;-72
2022/08/22 01:48:41;;;;;;;5.37;3.10;;;18.00;99.90;;;;;;5013081;28;20812;-71
2022/08/22 01:51:21;;;;;;;5.30;3.83;;;17.90;99.90;;;;;;5016191;28;20460;-71
2022/08/22 01:53:57;;;;;;;5.43;3.27;;;18.00;99.90;;;;;;5009979;28;21424;-72
2022/08/22 01:56:31;;;;;;;3.40;3.10;;;17.90;99.90;;;;;;5007559;28;20523;-72
2022/08/22 01:59:00;;;;;;;3.77;3.37;;;18.00;99.90;;;;;;5016554;28;20452;-72
2022/08/22 02:01:39;;;;;;;3.20;2.90;;;17.90;99.90;;;;;;5016565;28;20973;-71
2022/08/22 02:04:15;;;;;;;13.10;3.40;;;17.70;99.90;;;;;;5008440;28;20646;-71
2022/08/22 02:06:50;;;;;;;4.30;3.23;;;17.70;99.90;;;;;;5012917;28;21667;-71
2022/08/22 02:09:31;;;;;;;5.57;3.47;;;17.60;99.90;;;;;;5009678;28;20488;-71
2022/08/22 02:12:14;;;;;;;5.73;4.13;;;17.50;99.90;;;;;;5011312;28;20458;-71
2022/08/22 02:14:51;;;;;;;6.50;3.70;;;17.50;99.90;;;;;;5013216;28;22665;-72
2022/08/22 02:17:23;;;;;;;4.97;3.50;;;17.50;99.90;;;;;;4997875;28;20460;-73
2022/08/22 02:19:58;;;;;;;5.37;4.40;;;17.60;99.90;;;;;;5005610;28;21033;-73
2022/08/22 02:22:34;;;;;;;4.83;3.80;;;17.50;99.90;;;;;;5013959;28;20954;-72
2022/08/22 02:25:11;;;;;;;6.23;3.63;;;17.50;99.90;;;;;;5008585;28;20459;-72
2022/08/22 02:27:49;;;;;;;3.73;3.33;;;17.30;99.90;;;;;;5018570;28;20853;-72
2022/08/22 02:30:19;;;;;;;9.20;4.13;;;17.30;99.90;;;;;;5021156;28;20877;-73
2022/08/22 02:32:56;;;;;;;5.30;3.37;;;17.40;99.90;;;;;;5020565;28;20470;-72
2022/08/22 02:35:30;;;;;;;4.83;4.20;;;17.40;99.90;;;;;;5021552;28;20864;-73
2022/08/22 02:38:25;;;;;;;3.47;3.17;;;17.50;99.90;;;;;;5022190;28;20462;-72
2022/08/22 02:41:04;;;;;;;4.43;3.03;;;17.50;99.90;;;;;;5018927;28;20936;-72
2022/08/22 02:43:41;;;;;;;7.40;3.90;;;17.50;99.90;;;;;;5016629;28;20479;-72
2022/08/22 02:46:21;;;;;;;6.57;4.03;;;17.50;99.90;;;;;;5015354;28;21044;-71
2022/08/22 02:48:54;;;;;;;4.07;3.17;;;17.50;99.90;;;;;;5020826;28;20471;-71
2022/08/22 02:51:29;;;;;;;4.57;3.10;;;17.50;99.90;;;;;;5014298;28;20484;-72
2022/08/22 02:54:07;;;;;;;4.53;3.67;;;17.40;99.90;;;;;;5019434;28;20480;-71
2022/08/22 02:56:40;;;;;;;7.00;3.60;;;17.40;99.90;;;;;;5007908;28;20452;-71
2022/08/22 02:59:23;;;;;;;9.10;4.23;;;17.30;99.90;;;;;;5016368;28;20453;-72
2022/08/22 03:02:29;;;;;;;6.87;4.10;;;17.30;99.90;;;;;;5010143;28;20460;-71
2022/08/22 03:04:58;;;;;;;4.00;3.10;;;17.30;99.90;;;;;;5011526;28;21115;-71
2022/08/22 03:07:35;;;;;;;5.60;3.50;;;17.30;99.90;;;;;;5001412;28;20464;-71
2022/08/22 03:10:17;;;;;;;5.70;4.27;;;17.30;99.90;;;;;;5010929;28;21015;-71
2022/08/22 03:12:53;;;;;;;6.60;4.10;;;17.40;99.90;;;;;;5008374;28;21569;-71
2022/08/22 03:15:27;;;;;;;10.00;4.27;;;17.20;99.90;;;;;;5020713;28;20534;-71
2022/08/22 03:18:00;;;;;;;9.67;3.83;;;17.10;99.90;;;;;;5020641;28;20465;-71
2022/08/22 03:20:46;;;;;;;5.33;3.80;;;16.80;99.90;;;;;;5015637;28;20852;-71
2022/08/22 03:23:24;;;;;;;6.63;5.87;;;16.90;99.90;;;;;;5011400;28;20460;-71
2022/08/22 03:26:00;;;;;;;7.93;4.23;;;17.00;99.90;;;;;;5014352;28;20460;-71
2022/08/22 03:28:35;;;;;;;3.97;3.57;;;17.10;99.90;;;;;;5018146;28;20486;-71
2022/08/22 03:31:11;;;;;;;4.40;3.50;;;17.10;99.90;;;;;;5016410;28;20467;-71
2022/08/22 03:33:38;;;;;;;5.63;4.33;;;17.10;99.90;;;;;;5012548;28;20480;-71
2022/08/22 03:36:11;;;;;;;5.63;3.43;;;17.10;99.90;;;;;;5014687;28;21065;-71
2022/08/22 03:38:52;;;;;;;4.70;3.90;;;17.10;99.90;;;;;;5006958;28;20463;-71
2022/08/22 03:41:54;;;;;;;5.27;4.13;;;17.00;99.90;;;;;;5015148;28;21026;-71
2022/08/22 03:44:47;;;;;;;3.53;3.23;;;17.00;99.90;;;;;;5013290;28;20459;-71
2022/08/22 03:47:35;;;;;;;5.00;4.23;;;17.10;99.90;;;;;;5012458;28;20460;-71
2022/08/22 03:50:33;;;;;;;7.10;3.33;;;17.10;99.90;;;;;;5016089;28;20467;-71
2022/08/22 03:53:35;;;;;;;4.00;3.47;;;16.90;99.90;;;;;;5013343;28;20477;-71
2022/08/22 03:56:26;;;;;;;7.70;3.80;;;16.70;99.90;;;;;;5015771;28;20457;-72
2022/08/22 03:59:29;;;;;;;5.13;3.90;;;16.70;99.90;;;;;;5037439;22;21305;-75
2022/08/22 04:02:16;;;;;;;10.63;4.10;;;16.70;99.90;;;;;;5031572;28;20467;-75
2022/08/22 04:05:42;;;;;;;7.00;3.90;;;16.70;99.90;;;;;;5039844;28;20514;-74
2022/08/22 04:08:41;;;;;;;7.03;4.13;;;16.70;99.90;;;;;;4963590;28;20532;-75
2022/08/22 04:11:54;;;;;;;17.43;5.30;;;16.80;99.90;;;;;;5013436;28;20456;-75
2022/08/22 04:14:46;;;;;;;14.63;4.50;;;16.70;99.90;;;;;;4987723;28;20501;-75
2022/08/22 04:17:49;;;;;;;8.83;4.80;;;16.70;99.90;;;;;;5006580;28;20980;-75
2022/08/22 04:20:59;;;;;;;10.03;5.67;;;16.70;99.90;;;;;;5012829;28;20437;-74
2022/08/22 04:24:05;;;;;;;11.50;5.10;;;16.80;99.90;;;;;;5006657;28;20807;-74
2022/08/22 04:26:43;;;;;;;4.83;4.00;;;16.70;99.90;;;;;;5007976;28;20452;-75
2022/08/22 04:29:29;;;;;;;10.93;5.23;;;16.70;99.90;;;;;;5020518;28;20786;-75
2022/08/22 04:32:08;;;;;;;15.63;6.13;;;16.70;99.90;;;;;;5008396;28;20519;-75
2022/08/22 04:34:46;;;;;;;27.43;6.30;;;16.70;99.90;;;;;;5015857;28;20664;-74
2022/08/22 04:37:23;;;;;;;25.50;5.00;;;16.60;99.90;;;;;;5016154;28;20424;-75
2022/08/22 04:39:58;;;;;;;9.93;5.60;;;16.60;99.90;;;;;;5001232;28;20576;-74
2022/08/22 04:42:34;;;;;;;17.50;4.80;;;16.60;99.90;;;;;;5014875;28;20945;-74
2022/08/22 04:45:13;;;;;;;9.00;5.33;;;16.60;99.90;;;;;;5015831;28;20493;-74
2022/08/22 04:47:58;;;;;;;6.80;5.37;;;16.70;99.90;;;;;;5008881;28;20915;-74
2022/08/22 04:50:32;;;;;;;9.50;4.67;;;16.70;99.90;;;;;;5006825;28;20435;-74
2022/08/22 04:53:12;;;;;;;9.93;5.00;;;16.80;99.90;;;;;;5013526;28;20934;-74
2022/08/22 04:55:49;;;;;;;6.80;4.20;;;16.80;99.90;;;;;;5012527;28;20467;-74
2022/08/22 04:58:35;;;;;;;11.63;5.00;;;16.80;99.90;;;;;;5003312;28;20895;-75
2022/08/22 05:01:18;;;;;;;8.73;4.43;;;16.90;99.90;;;;;;5020279;28;20455;-74
2022/08/22 05:03:53;;;;;;;22.10;4.50;;;17.00;99.90;;;;;;5015859;28;20445;-74
2022/08/22 05:06:29;;;;;;;13.80;5.17;;;17.10;99.90;;;;;;5011377;28;20463;-74
2022/08/22 05:09:03;;;;;;;9.47;5.40;;;17.30;99.90;;;;;;5019284;28;20486;-75
2022/08/22 05:11:33;;;;;;;25.17;6.03;;;17.30;99.90;;;;;;5018450;28;20445;-74
2022/08/22 05:14:06;;;;;;;7.00;5.87;;;17.50;99.90;;;;;;5010984;28;20478;-74
2022/08/22 05:16:39;;;;;;;10.33;4.40;;;17.40;99.90;;;;;;5012102;28;20465;-74
2022/08/22 05:19:14;;;;;;;7.00;5.63;;;17.60;99.90;;;;;;5015047;28;20477;-75
2022/08/22 05:21:42;;;;;;;5.90;4.77;;;17.90;99.90;;;;;;5024074;28;20456;-73
2022/08/22 05:24:13;;;;;;;11.57;4.90;;;18.10;99.90;;;;;;5020721;28;20817;-75
2022/08/22 05:26:47;;;;;;;5.93;5.20;;;18.20;99.90;;;;;;5015955;28;20442;-75
2022/08/22 05:29:19;;;;;;;8.23;5.93;;;18.20;99.90;;;;;;5016342;28;20473;-74
2022/08/22 05:31:51;;;;;;;9.10;4.73;;;18.30;99.90;;;;;;5020348;28;20449;-75
2022/08/22 05:34:24;;;;;;;8.53;5.93;;;18.40;99.90;;;;;;5019328;28;20964;-75
2022/08/22 05:36:56;;;;;;;8.17;5.60;;;18.50;99.90;;;;;;5010386;28;20459;-75
2022/08/22 05:39:26;;;;;;;11.83;5.83;;;18.60;99.90;;;;;;5019671;28;20468;-73
2022/08/22 05:41:55;;;;;;;9.13;4.77;;;18.90;99.90;;;;;;5023904;28;20552;-75
2022/08/22 05:44:25;;;;;;;9.23;5.70;;;19.00;99.90;;;;;;5009390;28;20494;-76
2022/08/22 05:47:02;;;;;;;9.60;6.70;;;19.30;99.90;;;;;;5027583;28;20476;-74
2022/08/22 05:49:52;;;;;;;11.70;5.50;;;19.70;99.90;;;;;;5024504;28;20478;-74
2022/08/22 05:52:37;;;;;;;6.83;5.90;;;20.20;99.90;;;;;;5013915;28;20454;-73
2022/08/22 05:55:20;;;;;;;6.17;4.87;;;20.50;99.90;;;;;;5014593;28;20465;-74
2022/08/22 05:57:55;;;;;;;13.77;6.53;;;21.20;99.90;;;;;;5016651;28;20457;-74
2022/08/22 06:00:27;;;;;;;10.20;6.27;;;21.50;99.90;;;;;;5012898;28;20592;-73
2022/08/22 06:03:20;;;;;;;8.93;6.60;;;21.30;99.90;;;;;;5023463;28;20509;-74
2022/08/22 06:05:57;;;;;;;7.63;6.93;;;21.30;99.90;;;;;;5014050;28;20461;-74
2022/08/22 06:08:35;;;;;;;9.60;7.00;;;21.20;99.90;;;;;;5016927;28;21059;-74
2022/08/22 06:11:06;;;;;;;7.77;5.63;;;21.20;99.90;;;;;;5014311;28;20469;-75
2022/08/22 06:13:37;;;;;;;7.93;5.60;;;21.40;99.90;;;;;;5025262;28;20499;-75
2022/08/22 06:16:10;;;;;;;8.50;6.90;;;21.50;99.90;;;;;;5011002;28;20461;-74
2022/08/22 06:18:48;;;;;;;9.43;6.90;;;21.80;99.90;;;;;;5015888;28;20488;-74
2022/08/22 06:21:30;;;;;;;8.40;6.50;;;22.00;99.90;;;;;;5020958;28;21127;-74
2022/08/22 06:24:03;;;;;;;8.30;6.80;;;22.20;99.90;;;;;;5022937;28;20446;-74
2022/08/22 06:29:30;;;;;;;8.10;7.10;;;22.10;99.90;;;;;;5001668;28;20478;-74
2022/08/22 06:31:59;;;;;;;13.40;7.00;;;22.10;99.90;;;;;;5015116;28;20458;-75
2022/08/22 06:34:40;;;;;;;9.93;7.67;;;22.40;99.90;;;;;;5011269;28;20567;-74
2022/08/22 06:37:13;;;;;;;8.53;7.27;;;22.80;99.90;;;;;;5011006;28;20549;-74
2022/08/22 06:39:47;;;;;;;9.90;6.50;;;22.90;99.90;;;;;;5008530;28;20485;-75
2022/08/22 06:42:21;;;;;;;12.73;7.20;;;22.90;99.90;;;;;;5007604;28;20506;-74
2022/08/22 06:44:56;;;;;;;8.53;7.00;;;23.30;99.90;;;;;;5009641;28;20455;-74
2022/08/22 06:47:29;;;;;;;8.90;7.20;;;24.00;99.90;;;;;;5017674;28;20459;-75
2022/08/22 06:50:05;;;;;;;11.77;6.60;;;24.20;99.90;;;;;;5021375;28;20482;-74
2022/08/22 06:52:52;;;;;;;9.57;7.17;;;24.60;99.90;;;;;;5013464;28;21089;-74
2022/08/22 06:55:21;;;;;;;9.67;7.50;;;24.50;99.90;;;;;;5020097;28;21117;-74
2022/08/22 06:57:57;;;;;;;14.27;8.00;;;23.70;99.90;;;;;;5018810;28;20489;-74
2022/08/22 07:00:32;;;;;;;12.80;8.40;;;22.80;99.90;;;;;;5017176;28;20469;-74
2022/08/22 07:03:07;;;;;;;12.57;8.80;;;22.50;99.90;;;;;;5014480;28;20451;-75
2022/08/22 07:05:39;;;;;;;8.97;8.10;;;22.40;99.90;;;;;;5004560;28;20478;-74
2022/08/22 07:08:10;;;;;;;10.60;7.87;;;22.30;99.90;;;;;;5023504;28;20936;-74
2022/08/22 07:13:24;;;;;;;15.30;8.33;;;22.20;99.90;;;;;;5017081;28;20477;-74
2022/08/22 07:15:57;;;;;;;11.27;8.40;;;22.10;99.90;;;;;;5015830;28;20769;-74
2022/08/22 07:18:30;;;;;;;9.90;8.57;;;22.20;99.90;;;;;;5016179;28;20545;-74
2022/08/22 07:21:01;;;;;;;22.57;8.40;;;22.20;99.90;;;;;;5022142;28;20554;-73
2022/08/22 07:23:38;;;;;;;20.10;8.63;;;22.10;99.90;;;;;;5021757;28;20515;-74
2022/08/22 07:26:28;;;;;;;11.53;9.77;;;22.20;99.90;;;;;;5016786;28;21017;-74
2022/08/22 07:29:01;;;;;;;12.03;7.37;;;22.30;99.90;;;;;;5018107;28;20493;-74
2022/08/22 07:31:36;;;;;;;14.93;9.00;;;22.50;99.90;;;;;;5020430;28;20546;-73
2022/08/22 07:34:26;;;;;;;11.20;8.60;;;22.80;99.90;;;;;;5016905;28;20486;-74
2022/08/22 07:37:02;;;;;;;10.70;8.73;;;23.00;99.90;;;;;;5022944;28;20462;-74
2022/08/22 07:39:37;;;;;;;12.77;9.20;;;23.10;99.90;;;;;;5025318;28;20470;-74
2022/08/22 07:42:14;;;;;;;14.70;8.70;;;23.50;99.90;;;;;;5009517;28;20454;-74
2022/08/22 07:44:57;;;;;;;10.83;8.10;;;23.80;99.90;;;;;;5014618;28;20459;-75
2022/08/22 07:47:35;;;;;;;9.50;7.13;;;24.20;99.90;;;;;;5012802;28;20480;-74
2022/08/22 07:50:07;;;;;;;19.07;7.20;;;24.80;99.90;;;;;;5024497;28;21049;-74
2022/08/22 07:52:41;;;;;;;10.70;8.70;;;25.20;99.90;;;;;;5019408;28;20442;-74
2022/08/22 07:55:21;;;;;;;12.87;8.63;;;25.80;99.90;;;;;;5022584;28;20563;-74
2022/08/22 07:57:53;;;;;;;8.43;7.47;;;25.70;99.90;;;;;;5021285;28;20526;-74
2022/08/22 08:00:23;;;;;;;11.23;9.30;;;26.00;99.90;;;;;;5019559;28;20466;-74
2022/08/22 08:02:59;;;;;;;9.87;8.00;;;26.00;99.90;;;;;;5001852;28;20454;-73
2022/08/22 08:05:34;;;;;;;12.83;6.70;;;26.20;99.90;;;;;;5018097;28;20965;-75
2022/08/22 08:08:08;;;;;;;6.70;6.00;;;26.80;99.90;;;;;;5018903;28;20967;-74
2022/08/22 08:10:39;;;;;;;9.50;7.47;;;26.90;99.90;;;;;;5012382;28;20549;-74
2022/08/22 08:13:11;;;;;;;7.30;5.93;;;27.60;99.90;;;;;;5013804;28;20460;-74
2022/08/22 08:15:44;;;;;;;11.70;7.10;;;27.90;99.90;;;;;;5010549;28;20442;-74
2022/08/22 08:18:25;;;;;;;10.50;7.70;;;27.40;99.90;;;;;;5008124;28;20505;-74
2022/08/22 08:20:57;;;;;;;7.57;6.73;;;27.20;99.90;;;;;;5006749;28;20453;-75
2022/08/22 08:23:27;;;;;;;8.77;6.43;;;27.50;99.90;;;;;;5024277;28;20517;-75
2022/08/22 08:26:07;;;;;;;9.57;6.83;;;27.50;99.90;;;;;;5014869;28;20837;-74
2022/08/22 08:28:42;;;;;;;9.43;6.60;;;27.30;99.90;;;;;;5012916;28;20510;-75
2022/08/22 08:31:23;;;;;;;8.63;6.20;;;27.30;99.90;;;;;;5007419;28;20449;-74
2022/08/22 08:33:58;;;;;;;10.47;6.07;;;27.00;99.90;;;;;;5010645;28;20551;-74
2022/08/22 08:36:36;;;;;;;13.23;6.50;;;27.40;99.90;;;;;;5023589;28;20480;-75
2022/08/22 08:39:14;;;;;;;9.90;5.57;;;28.10;99.90;;;;;;5017244;28;20949;-75
2022/08/22 08:42:25;;;;;;;10.90;5.10;;;29.20;99.90;;;;;;5017702;28;20459;-75
2022/08/22 08:45:27;;;;;;;14.30;5.50;;;30.60;99.90;;;;;;4941006;28;20448;-74
2022/08/22 08:48:29;;;;;;;10.10;5.30;;;30.80;99.90;;;;;;5020368;28;20477;-75
2022/08/22 08:51:14;;;;;;;10.70;7.10;;;31.30;99.90;;;;;;5026835;28;20455;-75
2022/08/22 08:54:08;;;;;;;7.53;4.33;;;32.10;99.90;;;;;;5016823;28;20828;-75
2022/08/22 08:56:48;;;;;;;6.47;4.17;;;32.70;99.30;;;;;;5017012;28;20459;-75
2022/08/22 08:59:32;;;;;;;7.70;4.70;;;33.20;97.50;;;;;;5019961;28;20481;-75
2022/08/22 09:02:19;;;;;;;4.83;3.97;;;33.60;94.90;;;;;;5013051;28;20453;-75
2022/08/22 09:05:25;;;;;;;7.53;5.37;;;33.80;94.10;;;;;;5027169;28;20451;-75
2022/08/22 09:08:29;;;;;;;4.63;3.50;;;34.20;93.00;;;;;;5001158;28;20468;-75
2022/08/22 09:11:26;;;;;;;4.47;2.40;;;33.90;90.70;;;;;;5011521;28;20452;-75
2022/08/22 09:14:11;;;;;;;3.43;2.33;;;33.70;90.90;;;;;;5009511;28;20528;-75
2022/08/22 09:17:15;;;;;;;3.53;3.23;;;34.00;87.80;;;;;;5002546;28;21382;-75
2022/08/22 09:20:12;;;;;;;5.23;3.13;;;35.10;85.90;;;;;;5019945;28;20507;-75
2022/08/22 09:23:13;;;;;;;4.83;3.27;;;35.50;82.00;;;;;;5009608;28;20454;-75
2022/08/22 09:25:44;;;;;;;4.40;2.80;;;35.70;75.40;;;;;;5017345;28;20524;-75
2022/08/22 09:28:19;;;;;;;6.30;2.93;;;35.60;73.60;;;;;;5005322;28;20532;-75
2022/08/22 09:31:01;;;;;;;3.67;2.70;;;35.10;72.80;;;;;;5013147;28;20547;-75
2022/08/22 09:33:50;;;;;;;4.10;2.10;;;34.80;71.70;;;;;;5006128;28;20474;-75
2022/08/22 09:36:24;;;;;;;3.83;2.47;;;34.10;72.70;;;;;;5006181;28;20461;-76
2022/08/22 09:38:57;;;;;;;2.37;1.80;;;34.50;72.60;;;;;;5012705;28;20849;-75
2022/08/22 09:41:36;;;;;;;3.80;2.10;;;35.30;67.40;;;;;;5016337;28;20528;-75
2022/08/22 09:44:14;;;;;;;3.70;2.30;;;35.50;68.60;;;;;;5025990;28;20486;-75
2022/08/22 09:46:56;;;;;;;2.87;2.17;;;35.90;66.20;;;;;;5010395;28;20470;-75
2022/08/22 09:49:35;;;;;;;5.33;3.10;;;35.70;65.90;;;;;;5017178;28;20527;-75
2022/08/22 09:52:10;;;;;;;6.23;3.07;;;35.90;63.40;;;;;;5013019;28;21452;-75
2022/08/22 09:54:50;;;;;;;5.63;2.70;;;35.70;65.10;;;;;;5013791;28;20496;-74
2022/08/22 09:57:25;;;;;;;5.40;2.67;;;35.80;63.50;;;;;;5019522;28;20484;-74
2022/08/22 10:00:12;;;;;;;6.77;2.63;;;35.50;63.10;;;;;;5051182;22;20502;-72
2022/08/22 10:02:49;;;;;;;6.50;2.27;;;36.40;63.00;;;;;;5057431;28;20942;-72
2022/08/22 10:05:23;;;;;;;2.80;2.50;;;36.80;58.20;;;;;;5058817;28;20504;-73
2022/08/22 10:08:11;;;;;;;3.80;2.37;;;36.90;58.30;;;;;;5057392;28;20546;-73
2022/08/22 10:10:56;;;;;;;4.20;1.80;;;37.00;58.70;;;;;;5041632;28;20475;-74
2022/08/22 10:13:41;;;;;;;2.97;2.00;;;37.90;57.70;;;;;;5036533;28;20542;-73
2022/08/22 10:16:21;;;;;;;3.33;2.37;;;37.70;57.30;;;;;;5035526;28;20590;-74
2022/08/22 10:18:57;;;;;;;4.00;3.00;;;38.10;56.50;;;;;;5036692;28;20611;-73
2022/08/22 10:21:49;;;;;;;3.67;2.70;;;36.90;54.50;;;;;;5039404;28;20452;-74
2022/08/22 10:24:26;;;;;;;2.30;2.10;;;37.00;55.20;;;;;;5039413;28;20444;-73
2022/08/22 10:26:56;;;;;;;11.03;1.87;;;37.30;54.10;;;;;;5042631;28;20459;-73
2022/08/22 10:29:45;;;;;;;4.97;3.27;;;37.70;53.50;;;;;;5030027;28;20472;-73
2022/08/22 10:32:34;;;;;;;6.40;2.10;;;37.60;53.70;;;;;;5030702;28;20444;-73
2022/08/22 10:35:13;;;;;;;3.63;2.40;;;37.70;53.70;;;;;;5039705;28;21055;-74
2022/08/22 10:37:49;;;;;;;3.83;1.90;;;38.00;53.60;;;;;;5038666;28;21193;-74
2022/08/22 10:40:23;;;;;;;2.97;2.40;;;38.60;52.90;;;;;;5040162;28;20481;-73
2022/08/22 10:42:55;;;;;;;7.70;2.80;;;38.90;52.50;;;;;;5038849;28;20446;-72
2022/08/22 10:45:30;;;;;;;6.10;2.13;;;39.80;51.90;;;;;;5039853;28;20494;-72
2022/08/22 10:48:22;;;;;;;7.57;2.50;;;39.50;49.90;;;;;;5039732;28;20542;-73
2022/08/22 10:50:51;;;;;;;5.90;2.20;;;39.20;50.60;;;;;;5044025;28;20486;-73
2022/08/22 10:53:32;;;;;;;7.67;2.40;;;38.50;50.90;;;;;;5043484;28;23315;-73
2022/08/22 10:56:08;;;;;;;3.07;1.80;;;39.00;50.10;;;;;;5038932;28;20566;-73
2022/08/22 10:58:38;;;;;;;3.63;2.80;;;39.00;50.30;;;;;;5047573;28;20562;-73
2022/08/22 11:01:10;;;;;;;2.70;1.73;;;39.00;49.60;;;;;;5040669;28;20489;-72
2022/08/22 11:03:42;;;;;;;4.33;2.20;;;38.20;49.60;;;;;;5041563;28;21201;-74
2022/08/22 11:06:14;;;;;;;2.23;2.00;;;37.00;50.70;;;;;;5038102;28;20959;-73
2022/08/22 11:09:13;;;;;;;6.80;2.67;;;37.50;49.90;;;;;;5042910;28;20451;-73
2022/08/22 11:11:45;;;;;;;4.03;2.10;;;37.30;50.20;;;;;;5044351;28;20442;-74
2022/08/22 11:14:43;;;;;;;5.37;2.10;;;38.10;50.20;;;;;;5042149;28;20901;-73
2022/08/22 11:17:38;;;;;;;5.63;1.90;;;38.40;49.30;;;;;;5044003;28;20591;-72
2022/08/22 11:20:18;;;;;;;6.53;2.00;;;38.30;49.70;;;;;;5046420;28;20819;-72
2022/08/22 11:22:50;;;;;;;5.43;1.93;;;38.90;48.50;;;;;;5038557;28;20542;-71
2022/08/22 11:25:50;;;;;;;4.20;2.00;;;38.60;49.10;;;;;;5040307;28;20448;-72
2022/08/22 11:28:40;;;;;;;3.10;2.10;;;38.60;48.80;;;;;;5035715;28;20458;-72
2022/08/22 11:31:18;;;;;;;5.00;1.93;;;38.60;48.90;;;;;;5044305;28;20822;-72
2022/08/22 11:33:51;;;;;;;5.40;1.97;;;39.10;48.40;;;;;;5037173;28;20464;-73
2022/08/22 11:36:36;;;;;;;4.67;2.10;;;39.10;48.30;;;;;;5038543;28;20487;-73
2022/08/22 11:39:14;;;;;;;4.40;1.90;;;39.60;47.60;;;;;;5035663;28;20633;-73
2022/08/22 11:41:48;;;;;;;4.13;1.90;;;39.80;47.20;;;;;;5044255;28;20539;-74
2022/08/22 11:44:20;;;;;;;3.00;1.73;;;40.30;46.90;;;;;;5042389;28;20463;-74
2022/08/22 11:46:50;;;;;;;3.23;1.70;;;37.80;48.40;;;;;;5042654;28;20456;-72
2022/08/22 11:49:32;;;;;;;2.97;2.00;;;38.40;48.40;;;;;;5043375;28;20842;-73
2022/08/22 11:52:07;;;;;;;2.67;2.00;;;39.50;47.60;;;;;;5037601;28;20531;-74
2022/08/22 11:55:01;;;;;;;4.87;2.00;;;40.10;46.00;;;;;;5028758;28;20464;-73
2022/08/22 11:57:35;;;;;;;3.23;2.00;;;40.40;46.80;;;;;;5044530;28;20531;-73
2022/08/22 12:00:21;;;;;;;4.10;2.30;;;41.50;45.70;;;;;;5040734;28;20645;-73
2022/08/22 12:03:16;;;;;;;5.50;2.03;;;42.30;45.00;;;;;;5046080;28;20820;-73
2022/08/22 12:05:46;;;;;;;2.10;1.90;;;41.70;43.80;;;;;;5037810;28;20957;-73
2022/08/22 12:08:19;;;;;;;6.57;2.40;;;42.10;43.60;;;;;;5036903;28;20470;-74
2022/08/22 12:10:54;;;;;;;8.73;3.30;;;42.20;43.20;;;;;;5037500;28;20555;-73
2022/08/22 12:13:35;;;;;;;5.90;2.43;;;40.90;43.90;;;;;;5032798;28;20455;-75
2022/08/22 12:16:13;;;;;;;6.60;2.10;;;39.70;45.40;;;;;;5042875;28;20992;-72
2022/08/22 12:18:53;;;;;;;2.90;1.87;;;38.80;45.30;;;;;;5040628;28;20459;-73
2022/08/22 12:22:07;;;;;;;4.80;2.77;;;37.60;46.70;;;;;;5045666;28;20947;-73
2022/08/22 12:24:43;;;;;;;3.13;2.37;;;37.00;47.60;;;;;;5041602;28;21180;-72
2022/08/22 12:27:23;;;;;;;3.23;2.30;;;36.00;47.80;;;;;;5036351;28;20469;-72
2022/08/22 12:30:09;;;;;;;2.80;2.33;;;35.00;49.10;;;;;;5034155;28;20525;-73
2022/08/22 12:33:09;;;;;;;4.40;2.13;;;34.50;50.50;;;;;;5037906;28;20454;-73
2022/08/22 12:35:49;;;;;;;2.23;1.97;;;34.40;50.50;;;;;;5028117;28;21007;-73
2022/08/22 12:38:30;;;;;;;3.80;2.03;;;33.90;50.80;;;;;;5043009;28;20531;-73
2022/08/22 12:41:15;;;;;;;3.90;2.90;;;33.20;52.60;;;;;;5037636;28;20467;-73
2022/08/22 12:43:51;;;;;;;3.23;2.03;;;33.50;52.30;;;;;;5041244;28;20458;-73
2022/08/22 12:46:28;;;;;;;3.50;1.90;;;33.90;52.50;;;;;;5037164;28;20466;-72
2022/08/22 12:49:10;;;;;;;5.10;2.63;;;33.90;52.60;;;;;;5036484;28;20844;-73
2022/08/22 12:51:53;;;;;;;3.37;2.13;;;34.10;51.40;;;;;;5031893;28;20463;-73
2022/08/22 12:54:54;;;;;;;2.70;2.13;;;34.00;52.30;;;;;;5031359;28;20452;-73
2022/08/22 12:57:32;;;;;;;2.50;2.30;;;33.70;52.90;;;;;;5038933;28;20448;-75
2022/08/22 13:00:08;;;;;;;3.10;2.53;;;33.90;52.00;;;;;;5037555;28;20558;-74
2022/08/22 13:02:40;;;;;;;5.00;2.63;;;33.90;52.20;;;;;;5040458;28;20542;-72
2022/08/22 13:05:13;;;;;;;4.37;2.53;;;34.00;52.40;;;;;;5038881;28;20455;-73
2022/08/22 13:07:42;;;;;;;3.97;2.80;;;34.20;52.30;;;;;;5042560;28;20436;-72
2022/08/22 13:10:30;;;;;;;2.50;2.20;;;33.90;52.20;;;;;;5041714;28;20486;-73
2022/08/22 13:12:59;;;;;;;2.70;2.50;;;33.80;52.80;;;;;;5036889;28;20436;-73
2022/08/22 13:15:29;;;;;;;2.57;2.20;;;33.70;52.30;;;;;;5032130;28;20550;-74
2022/08/22 13:18:01;;;;;;;4.50;2.27;;;33.80;53.10;;;;;;5035138;28;20443;-72
2022/08/22 13:20:31;;;;;;;5.03;3.37;;;33.60;53.50;;;;;;5034844;28;20538;-74
2022/08/22 13:23:00;;;;;;;4.17;2.00;;;33.20;53.10;;;;;;5038919;28;20466;-73
2022/08/22 13:25:30;;;;;;;5.70;2.03;;;33.00;53.60;;;;;;5037585;28;20443;-72
2022/08/22 13:28:00;;;;;;;6.20;2.97;;;32.70;53.90;;;;;;5030971;28;20954;-73
2022/08/22 13:30:32;;;;;;;3.80;2.47;;;32.70;54.00;;;;;;5041250;28;21039;-73
2022/08/22 13:33:08;;;;;;;4.90;2.57;;;32.80;54.20;;;;;;5035346;28;20444;-72
2022/08/22 13:35:41;;;;;;;7.93;3.43;;;33.20;53.00;;;;;;5033604;28;20490;-73
2022/08/22 13:38:10;;;;;;;6.97;2.13;;;33.50;53.40;;;;;;5033274;28;20549;-73
2022/08/22 13:40:39;;;;;;;4.67;2.00;;;33.60;53.50;;;;;;5036682;28;20490;-73
2022/08/22 13:43:09;;;;;;;2.70;2.27;;;33.80;52.80;;;;;;5030968;28;20466;-72
2022/08/22 13:45:38;;;;;;;3.67;2.23;;;33.40;52.80;;;;;;5039917;28;20533;-73
2022/08/22 13:48:11;;;;;;;2.20;2.00;;;33.10;54.50;;;;;;5042255;28;20447;-72
2022/08/22 13:51:00;;;;;;;6.90;2.60;;;33.10;54.60;;;;;;5040255;28;20996;-73
2022/08/22 13:53:34;;;;;;;3.60;2.20;;;33.20;54.50;;;;;;5035955;28;20459;-73
2022/08/22 13:56:07;;;;;;;4.90;3.20;;;32.80;54.80;;;;;;5040951;28;20574;-72
2022/08/22 13:58:39;;;;;;;4.23;2.93;;;32.60;54.40;;;;;;5034241;28;20479;-73